createdAt,value
2018-01-04T00:01:07.054Z,7.20
2018-01-04T00:03:09.741Z,7.03
2018-01-04T00:05:12.476Z,8.77
2018-01-04T00:07:15.116Z,7.03
2018-01-04T00:09:17.830Z,6.77
2018-01-04T00:11:20.501Z,6.17
2018-01-04T00:13:23.170Z,7.40
2018-01-04T00:15:25.856Z,7.40
2018-01-04T00:17:28.498Z,7.60
2018-01-04T00:19:31.937Z,7.10
2018-01-04T00:21:34.588Z,6.87
2018-01-04T00:23:37.230Z,7.03
2018-01-04T00:25:39.893Z,7.00
2018-01-04T00:27:42.543Z,6.50
2018-01-04T00:29:45.190Z,6.73
2018-01-04T00:31:47.857Z,7.37
2018-01-04T00:33:51.558Z,6.60
2018-01-04T00:35:54.225Z,7.10
2018-01-04T00:37:57.691Z,8.67
2018-01-04T00:40:00.340Z,7.20
2018-01-04T00:42:02.983Z,6.80
2018-01-04T00:44:06.424Z,7.13
2018-01-04T00:46:09.074Z,6.30
2018-01-04T00:48:11.742Z,6.97
2018-01-04T00:50:14.408Z,6.17
2018-01-04T00:52:17.814Z,6.60
2018-01-04T00:54:20.457Z,8.20
2018-01-04T00:56:23.907Z,6.20
2018-01-04T00:58:26.546Z,6.80
2018-01-04T01:00:29.211Z,6.30
2018-01-04T01:02:32.640Z,6.63
2018-01-04T01:04:35.286Z,7.10
2018-01-04T01:06:38.707Z,7.07
2018-01-04T01:08:41.404Z,6.27
2018-01-04T01:10:44.053Z,7.80
2018-01-04T01:12:46.891Z,6.57
2018-01-04T01:14:49.633Z,6.57
2018-01-04T01:16:53.068Z,6.80
2018-01-04T01:18:55.734Z,7.27
2018-01-04T01:20:58.410Z,7.77
2018-01-04T01:23:01.074Z,7.80
2018-01-04T01:25:04.006Z,7.03
2018-01-04T01:27:06.685Z,6.50
2018-01-04T01:29:09.338Z,7.53
2018-01-04T01:31:12.847Z,5.87
2018-01-04T01:33:15.530Z,6.80
2018-01-04T01:35:18.198Z,7.30
2018-01-04T01:37:21.615Z,8.27
2018-01-04T01:39:24.282Z,7.33
2018-01-04T01:41:26.940Z,6.30
2018-01-04T01:43:30.382Z,7.67
2018-01-04T01:45:33.055Z,6.93
2018-01-04T01:47:35.716Z,7.50
2018-01-04T01:49:38.388Z,7.60
2018-01-04T01:51:41.034Z,7.27
2018-01-04T01:53:44.448Z,6.53
2018-01-04T01:55:47.121Z,7.57
2018-01-04T01:57:49.760Z,7.50
2018-01-04T01:59:52.470Z,6.70
2018-01-04T02:01:55.266Z,5.87
2018-01-04T02:03:57.896Z,7.00
2018-01-04T02:06:00.534Z,6.60
2018-01-04T02:08:03.198Z,6.10
2018-01-04T02:10:05.833Z,6.90
2018-01-04T02:12:09.561Z,7.57
2018-01-04T02:14:12.242Z,7.40
2018-01-04T02:16:20.956Z,7.60
2018-01-04T02:18:35.426Z,7.20
2018-01-04T02:20:50.076Z,7.33
2018-01-04T02:25:44.740Z,6.33
2018-01-04T02:27:59.995Z,7.57
2018-01-04T02:30:14.606Z,6.73
2018-01-04T02:32:29.190Z,7.17
2018-01-04T02:34:43.919Z,6.90
2018-01-04T02:36:58.465Z,8.23
2018-01-04T02:52:15.806Z,5.40
2018-01-04T02:54:18.479Z,6.83
2018-01-04T02:56:21.125Z,7.63
2018-01-04T02:58:23.786Z,7.30
2018-01-04T03:00:27.227Z,7.40
2018-01-04T03:02:29.883Z,7.00
2018-01-04T03:04:32.673Z,8.60
2018-01-04T03:06:35.339Z,7.33
2018-01-04T03:08:37.972Z,7.60
2018-01-04T03:10:41.393Z,7.20
2018-01-04T03:12:44.042Z,6.87
2018-01-04T03:14:47.449Z,8.60
2018-01-04T03:16:50.142Z,8.30
2018-01-04T03:18:52.790Z,8.27
2018-01-04T03:20:56.206Z,7.57
2018-01-04T03:23:04.581Z,6.93
2018-01-04T03:25:12.920Z,7.90
2018-01-04T03:27:21.274Z,6.70
2018-01-04T03:29:26.534Z,9.23
2018-01-04T03:31:34.842Z,7.30
2018-01-04T03:33:43.158Z,6.43
2018-01-04T03:35:52.416Z,8.13
2018-01-04T03:38:00.839Z,8.70
2018-01-04T03:40:09.218Z,7.73
2018-01-04T03:42:18.307Z,7.60
2018-01-04T03:44:26.730Z,8.60
2018-01-04T03:46:35.142Z,7.93
2018-01-04T03:48:43.636Z,8.00
2018-01-04T03:50:51.974Z,7.07
2018-01-04T03:52:54.624Z,6.87
2018-01-04T03:55:02.921Z,9.30
2018-01-04T03:57:11.341Z,7.80
2018-01-04T03:59:19.713Z,7.97
2018-01-04T04:01:28.248Z,7.63
2018-01-04T04:03:30.902Z,6.47
2018-01-04T04:05:39.202Z,9.30
2018-01-04T04:07:41.930Z,8.60
2018-01-04T04:09:44.578Z,9.67
2018-01-04T04:11:47.254Z,7.53
2018-01-04T04:13:49.897Z,9.40
2018-01-04T04:15:53.331Z,8.43
2018-01-04T04:17:55.988Z,8.20
2018-01-04T04:19:58.891Z,7.27
2018-01-04T04:22:01.575Z,8.60
2018-01-04T04:24:04.252Z,9.90
2018-01-04T04:26:06.911Z,7.70
2018-01-04T04:28:09.600Z,7.53
2018-01-04T04:30:12.279Z,8.70
2018-01-04T04:32:14.935Z,8.10
2018-01-04T04:34:17.615Z,9.07
2018-01-04T04:36:20.296Z,7.93
2018-01-04T04:38:22.939Z,9.57
2018-01-04T04:40:25.614Z,7.40
2018-01-04T04:42:29.030Z,7.60
2018-01-04T04:44:31.703Z,7.20
2018-01-04T04:46:34.375Z,7.30
2018-01-04T04:48:37.034Z,8.97
2018-01-04T04:50:40.456Z,9.13
2018-01-04T04:52:43.142Z,7.83
2018-01-04T04:54:45.818Z,8.03
2018-01-04T04:56:48.530Z,8.50
2018-01-04T04:58:51.206Z,8.47
2018-01-04T05:00:53.840Z,7.23
2018-01-04T05:02:56.480Z,8.87
2018-01-04T05:04:59.922Z,8.00
2018-01-04T05:07:02.604Z,7.70
2018-01-04T05:09:06.022Z,7.50
2018-01-04T05:11:08.703Z,7.90
2018-01-04T05:13:11.369Z,8.60
2018-01-04T05:15:14.014Z,6.70
2018-01-04T05:17:16.679Z,7.90
2018-01-04T05:19:19.322Z,6.87
2018-01-04T05:21:22.735Z,7.30
2018-01-04T05:23:25.545Z,7.77
2018-01-04T05:25:28.204Z,7.60
2018-01-04T05:27:30.862Z,8.67
2018-01-04T05:29:33.551Z,7.70
2018-01-04T05:31:36.214Z,8.00
2018-01-04T05:33:38.849Z,8.80
2018-01-04T05:35:41.527Z,7.30
2018-01-04T05:37:44.170Z,6.80
2018-01-04T05:39:46.804Z,8.53
2018-01-04T05:41:50.251Z,7.07
2018-01-04T05:43:52.885Z,7.30
2018-01-04T05:45:55.539Z,7.40
2018-01-04T05:47:58.990Z,7.00
2018-01-04T05:50:01.643Z,8.23
2018-01-04T05:52:04.297Z,7.00
2018-01-04T05:54:07.729Z,6.63
2018-01-04T05:56:10.387Z,7.30
2018-01-04T05:58:13.038Z,8.00
2018-01-04T06:00:16.465Z,6.97
2018-01-04T06:02:19.096Z,7.30
2018-01-04T06:04:21.806Z,6.87
2018-01-04T06:06:24.461Z,5.90
2018-01-04T06:08:27.862Z,7.00
2018-01-04T06:10:30.532Z,7.73
2018-01-04T06:12:33.937Z,7.40
2018-01-04T06:14:36.576Z,7.37
2018-01-04T06:16:39.250Z,7.43
2018-01-04T06:18:41.884Z,6.60
2018-01-04T06:20:44.525Z,6.67
2018-01-04T06:22:47.972Z,6.70
2018-01-04T06:24:50.615Z,6.10
2018-01-04T06:26:53.271Z,6.00
2018-01-04T06:28:56.737Z,7.43
2018-01-04T06:30:59.460Z,6.07
2018-01-04T06:33:02.142Z,8.00
2018-01-04T06:35:04.804Z,6.27
2018-01-04T06:37:07.501Z,7.47
2018-01-04T06:39:10.158Z,6.70
2018-01-04T06:41:12.993Z,7.40
2018-01-04T06:43:15.618Z,5.87
2018-01-04T06:45:18.260Z,5.47
2018-01-04T06:47:21.718Z,6.70
2018-01-04T06:49:24.386Z,6.50
2018-01-04T06:51:27.028Z,6.50
2018-01-04T06:53:30.470Z,6.40
2018-01-04T06:55:33.125Z,6.47
2018-01-04T06:57:35.805Z,6.00
2018-01-04T06:59:38.467Z,5.87
2018-01-04T07:01:41.142Z,5.97
2018-01-04T07:03:43.834Z,6.07
2018-01-04T07:05:46.494Z,6.70
2018-01-04T07:07:49.175Z,6.30
2018-01-04T07:09:51.875Z,7.10
2018-01-04T07:11:54.533Z,5.30
2018-01-04T07:13:57.232Z,5.73
2018-01-04T07:15:59.890Z,6.23
2018-01-04T07:18:02.552Z,6.00
2018-01-04T07:20:05.248Z,5.70
2018-01-04T07:22:07.898Z,5.70
2018-01-04T07:24:10.660Z,6.20
2018-01-04T07:26:14.101Z,5.33
2018-01-04T07:28:16.750Z,6.27
2018-01-04T07:30:19.585Z,5.13
2018-01-04T07:32:22.255Z,5.87
2018-01-04T07:34:25.698Z,6.10
2018-01-04T07:36:28.936Z,5.07
2018-01-04T07:38:31.648Z,5.70
2018-01-04T07:40:35.049Z,5.57
2018-01-04T07:42:37.998Z,5.13
2018-01-04T07:44:41.436Z,5.60
2018-01-04T07:46:44.421Z,9.80
2018-01-04T07:48:47.074Z,16.90
2018-01-04T07:50:50.532Z,6.40
2018-01-04T07:52:53.178Z,5.70
2018-01-04T07:54:55.820Z,4.97
2018-01-04T07:56:58.530Z,6.10
2018-01-04T07:59:01.269Z,6.50
2018-01-04T08:01:04.677Z,6.80
2018-01-04T08:03:07.336Z,4.70
2018-01-04T08:05:10.739Z,5.70
2018-01-04T08:07:14.174Z,9.70
2018-01-04T08:09:16.852Z,4.77
2018-01-04T08:11:19.504Z,4.90
2018-01-04T08:13:22.153Z,6.67
2018-01-04T08:15:25.598Z,4.93
2018-01-04T08:17:33.424Z,5.90
2018-01-04T08:19:36.080Z,5.80
2018-01-04T08:21:38.750Z,5.57
2018-01-04T08:23:41.380Z,5.20
2018-01-04T08:25:44.807Z,6.23
2018-01-04T08:27:47.523Z,4.90
2018-01-04T08:29:50.164Z,4.93
2018-01-04T08:31:52.819Z,4.70
2018-01-04T08:33:55.492Z,4.90
2018-01-04T08:35:58.133Z,5.47
2018-01-04T08:38:01.545Z,4.70
2018-01-04T08:40:05.083Z,4.10
2018-01-04T08:42:07.745Z,4.20
2018-01-04T08:44:10.384Z,5.03
2018-01-04T08:46:13.849Z,5.10
2018-01-04T08:48:16.499Z,5.20
2018-01-04T08:50:19.137Z,4.23
2018-01-04T08:52:22.565Z,4.37
2018-01-04T08:54:25.214Z,4.10
2018-01-04T08:56:27.873Z,4.00
2018-01-04T08:58:31.301Z,4.10
2018-01-04T09:00:33.959Z,4.77
2018-01-04T09:02:36.648Z,3.93
2018-01-04T09:04:39.288Z,4.30
2018-01-04T09:06:42.729Z,4.80
2018-01-04T09:08:45.428Z,4.40
2018-01-04T09:10:48.098Z,4.30
2018-01-04T09:12:50.736Z,4.07
2018-01-04T09:14:53.418Z,4.87
2018-01-04T09:16:56.074Z,4.43
2018-01-04T09:18:59.063Z,4.67
2018-01-04T09:21:02.594Z,4.70
2018-01-04T09:23:05.341Z,5.33
2018-01-04T09:25:07.986Z,5.33
2018-01-04T09:27:10.644Z,4.93
2018-01-04T09:29:13.296Z,5.37
2018-01-04T09:31:15.951Z,5.33
2018-01-04T09:33:18.626Z,6.23
2018-01-04T09:35:21.318Z,6.20
2018-01-04T09:37:23.960Z,6.70
2018-01-04T09:39:27.392Z,6.63
2018-01-04T09:41:30.136Z,6.13
2018-01-04T09:43:33.564Z,6.50
2018-01-04T09:45:36.231Z,6.20
2018-01-04T09:47:38.883Z,5.83
2018-01-04T09:49:42.362Z,5.90
2018-01-04T09:51:45.760Z,6.63
2018-01-04T09:53:49.175Z,6.23
2018-01-04T09:55:51.846Z,5.80
2018-01-04T09:57:54.523Z,5.77
2018-01-04T09:59:57.174Z,5.70
2018-01-04T10:02:00.619Z,7.13
2018-01-04T10:04:03.295Z,7.40
2018-01-04T10:06:05.931Z,7.17
2018-01-04T10:08:09.354Z,6.93
2018-01-04T10:10:11.992Z,8.53
2018-01-04T10:12:15.447Z,8.00
2018-01-04T10:14:19.039Z,9.00
2018-01-04T10:16:21.698Z,8.67
2018-01-04T10:18:24.388Z,8.57
2018-01-04T10:20:27.043Z,8.27
2018-01-04T10:22:29.747Z,8.77
2018-01-04T10:24:32.420Z,8.47
2018-01-04T10:26:35.071Z,9.47
2018-01-04T10:28:37.736Z,10.10
2018-01-04T10:30:40.405Z,9.67
2018-01-04T10:32:43.818Z,9.10
2018-01-04T10:34:46.469Z,8.60
2018-01-04T10:36:49.915Z,8.80
2018-01-04T10:38:52.564Z,10.13
2018-01-04T10:40:55.208Z,8.27
2018-01-04T10:42:58.633Z,8.20
2018-01-04T10:45:01.284Z,8.73
2018-01-04T10:47:04.102Z,8.17
2018-01-04T10:49:06.970Z,8.00
2018-01-04T10:51:09.646Z,8.80
2018-01-04T10:53:12.291Z,7.90
2018-01-04T10:55:15.726Z,8.20
2018-01-04T10:57:18.365Z,7.90
2018-01-04T10:59:21.784Z,6.80
2018-01-04T11:01:24.468Z,6.73
2018-01-04T11:03:27.126Z,6.60
2018-01-04T11:05:29.933Z,6.80
2018-01-04T11:07:32.701Z,6.53
2018-01-04T11:09:35.348Z,6.37
2018-01-04T11:11:38.786Z,5.50
2018-01-04T11:13:41.478Z,5.50
2018-01-04T11:15:44.129Z,5.47
2018-01-04T11:17:46.777Z,5.23
2018-01-04T11:19:49.447Z,5.33
2018-01-04T11:21:52.869Z,4.40
2018-01-04T11:23:55.619Z,4.63
2018-01-04T11:25:59.071Z,4.83
2018-01-04T11:28:01.802Z,4.90
2018-01-04T11:30:04.481Z,4.80
2018-01-04T11:32:07.146Z,5.67
2018-01-04T11:34:09.793Z,4.97
2018-01-04T11:36:12.441Z,4.97
2018-01-04T11:38:15.860Z,4.87
2018-01-04T11:40:18.496Z,5.43
2018-01-04T11:42:21.159Z,4.80
2018-01-04T11:44:23.816Z,4.30
2018-01-04T11:46:27.315Z,4.20
2018-01-04T11:48:30.024Z,4.20
2018-01-04T11:50:32.794Z,3.80
2018-01-04T11:52:35.451Z,4.23
2018-01-04T11:54:38.210Z,3.77
2018-01-04T11:56:41.627Z,4.13
2018-01-04T11:58:44.755Z,4.20
2018-01-04T12:00:47.436Z,3.90
2018-01-04T12:02:50.065Z,3.60
2018-01-04T12:04:52.711Z,3.37
2018-01-04T12:06:56.161Z,3.00
2018-01-04T12:08:58.797Z,3.73
2018-01-04T12:11:02.207Z,3.50
2018-01-04T12:13:04.873Z,3.20
2018-01-04T12:15:07.563Z,2.90
2018-01-04T12:17:10.246Z,2.90
2018-01-04T12:19:12.924Z,3.20
2018-01-04T12:21:15.548Z,3.70
2018-01-04T12:23:18.184Z,4.40
2018-01-04T12:25:20.949Z,4.40
2018-01-04T12:27:23.572Z,5.03
2018-01-04T12:29:26.222Z,5.73
2018-01-04T12:31:28.924Z,6.83
2018-01-04T12:33:31.563Z,7.87
2018-01-04T12:35:34.212Z,8.97
2018-01-04T12:37:36.887Z,7.57
2018-01-04T12:39:39.664Z,8.87
2018-01-04T12:41:42.325Z,9.60
2018-01-04T12:43:45.849Z,8.30
2018-01-04T12:45:48.488Z,8.60
2018-01-04T12:47:51.925Z,9.63
2018-01-04T12:49:54.596Z,10.30
2018-01-04T12:51:57.286Z,9.67
2018-01-04T12:53:59.920Z,8.50
2018-01-04T12:56:03.353Z,8.20
2018-01-04T12:58:05.990Z,7.70
2018-01-04T13:00:08.670Z,6.70
2018-01-04T13:02:12.116Z,6.83
2018-01-04T13:04:14.778Z,8.50
2018-01-04T13:06:17.477Z,7.43
2018-01-04T13:08:20.150Z,7.40
2018-01-04T13:10:22.799Z,7.50
2018-01-04T13:12:25.456Z,5.93
2018-01-04T13:14:28.243Z,5.50
2018-01-04T13:16:30.872Z,5.27
2018-01-04T13:18:33.508Z,5.83
2018-01-04T13:20:36.168Z,6.20
2018-01-04T13:22:39.213Z,5.27
2018-01-04T13:24:41.952Z,5.53
2018-01-04T13:26:44.730Z,4.93
2018-01-04T13:28:47.373Z,5.70
2018-01-04T13:30:50.047Z,5.33
2018-01-04T13:32:52.742Z,5.00
2018-01-04T13:34:55.381Z,5.67
2018-01-04T13:36:58.803Z,5.27
2018-01-04T13:39:01.483Z,5.30
2018-01-04T13:41:04.283Z,5.83
2018-01-04T13:43:06.923Z,4.83
2018-01-04T13:45:09.598Z,4.60
2018-01-04T13:47:12.235Z,4.30
2018-01-04T13:49:14.940Z,4.10
2018-01-04T13:51:18.361Z,5.10
2018-01-04T13:53:21.007Z,4.47
2018-01-04T13:55:24.421Z,5.20
2018-01-04T13:57:27.068Z,5.40
2018-01-04T13:59:30.509Z,5.53
2018-01-04T14:01:33.171Z,5.73
2018-01-04T14:03:35.822Z,6.37
2018-01-04T14:05:39.260Z,6.20
2018-01-04T14:07:41.989Z,7.17
2018-01-04T14:09:44.696Z,6.63
2018-01-04T14:11:47.374Z,7.00
2018-01-04T14:13:50.027Z,7.33
2018-01-04T14:15:53.467Z,7.30
2018-01-04T14:17:56.154Z,7.87
2018-01-04T14:19:58.982Z,8.27
2018-01-04T14:22:01.618Z,8.70
2018-01-04T14:24:04.630Z,8.40
2018-01-04T14:26:07.290Z,9.10
2018-01-04T14:28:09.928Z,9.20
2018-01-04T14:30:12.591Z,9.27
2018-01-04T14:32:15.275Z,10.83
2018-01-04T14:34:17.938Z,12.67
2018-01-04T14:36:20.600Z,10.70
2018-01-04T14:38:23.288Z,16.67
2018-01-04T14:40:25.950Z,11.50
2018-01-04T14:42:28.620Z,11.57
2018-01-04T14:44:32.049Z,10.63
2018-01-04T14:46:34.725Z,11.20
2018-01-04T14:48:37.465Z,11.10
2018-01-04T14:50:40.140Z,10.97
2018-01-04T14:52:43.823Z,10.93
2018-01-04T14:54:46.470Z,12.50
2018-01-04T14:56:49.132Z,12.07
2018-01-04T14:58:51.793Z,15.70
2018-01-04T15:00:54.481Z,11.17
2018-01-04T15:02:57.134Z,8.27
2018-01-04T15:04:59.829Z,11.63
2018-01-04T15:07:02.499Z,11.70
2018-01-04T15:09:05.175Z,14.07
2018-01-04T15:11:07.844Z,12.47
2018-01-04T15:13:10.495Z,11.40
2018-01-04T15:15:14.233Z,10.70
2018-01-04T15:17:16.927Z,10.70
2018-01-04T15:19:19.854Z,16.67
2018-01-04T15:21:23.256Z,10.40
2018-01-04T15:23:27.810Z,8.07
2018-01-04T15:25:30.454Z,10.70
2018-01-04T15:27:33.860Z,21.63
2018-01-04T15:29:36.580Z,13.33
2018-01-04T15:31:40.047Z,11.20
2018-01-04T15:33:42.689Z,14.23
2018-01-04T15:35:46.121Z,10.60
2018-01-04T15:37:48.759Z,7.27
2018-01-04T15:39:52.187Z,9.20
2018-01-04T15:41:54.856Z,6.37
2018-01-04T15:43:57.511Z,6.40
2018-01-04T15:46:01.023Z,7.43
2018-01-04T15:48:03.702Z,6.17
2018-01-04T15:50:06.350Z,6.93
2018-01-04T15:52:09.772Z,6.50
2018-01-04T15:54:12.437Z,6.40
2018-01-04T15:56:15.067Z,6.00
2018-01-04T15:58:17.796Z,5.33
2018-01-04T16:00:20.470Z,6.10
2018-01-04T16:02:23.139Z,7.40
2018-01-04T16:04:25.805Z,7.30
2018-01-04T16:06:29.213Z,7.67
2018-01-04T16:08:31.862Z,5.43
2018-01-04T16:10:35.299Z,8.67
2018-01-04T16:12:37.946Z,6.60
2018-01-04T16:14:41.463Z,5.30
2018-01-04T16:16:44.141Z,7.13
2018-01-04T16:18:46.793Z,6.93
2018-01-04T16:20:50.202Z,5.90
2018-01-04T16:22:52.923Z,6.13
2018-01-04T16:24:55.568Z,5.57
2018-01-04T16:26:58.252Z,7.27
2018-01-04T16:29:00.912Z,6.57
2018-01-04T16:31:03.547Z,6.57
2018-01-04T16:33:06.201Z,7.30
2018-01-04T16:35:08.887Z,5.63
2018-01-04T16:37:11.532Z,6.33
2018-01-04T16:39:14.187Z,6.93
2018-01-04T16:41:16.889Z,6.93
2018-01-04T16:43:19.542Z,16.20
2018-01-04T16:45:22.177Z,7.37
2018-01-04T16:47:24.837Z,6.40
2018-01-04T16:49:27.490Z,7.70
2018-01-04T16:51:30.129Z,7.40
2018-01-04T16:53:32.810Z,8.30
2018-01-04T16:55:35.601Z,8.40
2018-01-04T16:57:38.261Z,8.37
2018-01-04T16:59:40.949Z,7.43
2018-01-04T17:01:43.623Z,7.70
2018-01-04T17:03:46.303Z,8.90
2018-01-04T17:05:48.966Z,7.03
2018-01-04T17:07:51.596Z,11.00
2018-01-04T17:09:54.275Z,7.90
2018-01-04T17:11:56.908Z,8.80
2018-01-04T17:13:59.558Z,8.10
2018-01-04T17:16:02.991Z,7.97
2018-01-04T17:18:05.665Z,7.77
2018-01-04T17:20:08.310Z,9.27
2018-01-04T17:22:10.995Z,8.00
2018-01-04T17:24:13.658Z,8.80
2018-01-04T17:26:17.076Z,6.53
2018-01-04T17:28:19.786Z,8.17
2018-01-04T17:30:22.491Z,8.10
2018-01-04T17:32:25.913Z,6.93
2018-01-04T17:34:28.599Z,8.00
2018-01-04T17:36:31.499Z,9.17
2018-01-04T17:38:34.173Z,7.80
2018-01-04T17:40:36.838Z,8.23
2018-01-04T17:42:39.479Z,6.60
2018-01-04T17:44:42.378Z,7.70
2018-01-04T17:46:45.057Z,6.93
2018-01-04T17:48:47.761Z,7.90
2018-01-04T17:50:50.484Z,7.10
2018-01-04T17:52:58.512Z,6.70
2018-01-04T17:55:01.379Z,7.10
2018-01-04T17:57:04.786Z,7.63
2018-01-04T17:59:07.444Z,6.97
2018-01-04T18:01:10.918Z,7.00
2018-01-04T18:03:13.617Z,6.70
2018-01-04T18:05:16.293Z,8.23
2018-01-04T18:07:19.811Z,9.20
2018-01-04T18:09:22.468Z,8.87
2018-01-04T18:11:25.889Z,9.80
2018-01-04T18:13:28.578Z,8.07
2018-01-04T18:15:31.232Z,8.40
2018-01-04T18:17:33.898Z,7.50
2018-01-04T18:19:36.580Z,9.20
2018-01-04T18:21:39.236Z,7.40
2018-01-04T18:23:42.662Z,7.17
2018-01-04T18:25:45.355Z,8.50
2018-01-04T18:27:48.061Z,7.30
2018-01-04T18:29:51.547Z,7.77
2018-01-04T18:31:54.222Z,7.93
2018-01-04T18:33:56.894Z,8.00
2018-01-04T18:35:59.543Z,9.23
2018-01-04T18:38:02.230Z,9.80
2018-01-04T18:40:05.661Z,10.00
2018-01-04T18:42:08.309Z,10.93
2018-01-04T18:44:11.083Z,14.00
2018-01-04T18:46:14.518Z,10.17
2018-01-04T18:48:17.936Z,8.03
2018-01-04T18:50:20.618Z,11.87
2018-01-04T18:52:23.269Z,16.23
2018-01-04T18:54:26.690Z,9.70
2018-01-04T18:56:29.409Z,10.10
2018-01-04T18:58:32.080Z,10.00
2018-01-04T19:00:34.814Z,10.97
2018-01-04T19:02:37.504Z,8.87
2018-01-04T19:04:40.140Z,10.60
2018-01-04T19:06:43.554Z,10.53
2018-01-04T19:08:46.244Z,8.60
2018-01-04T19:10:48.887Z,10.20
2018-01-04T19:12:52.311Z,10.97
2018-01-04T19:14:55.027Z,7.60
2018-01-04T19:16:57.692Z,8.23
2018-01-04T19:19:00.368Z,6.93
2018-01-04T19:21:03.789Z,7.07
2018-01-04T19:23:06.459Z,7.30
2018-01-04T19:25:09.124Z,6.20
2018-01-04T19:27:11.818Z,6.83
2018-01-04T19:29:14.468Z,7.20
2018-01-04T19:31:17.144Z,6.60
2018-01-04T19:33:20.555Z,6.37
2018-01-04T19:35:23.216Z,6.30
2018-01-04T19:37:25.885Z,6.37
2018-01-04T19:39:28.603Z,7.23
2018-01-04T19:41:32.039Z,9.10
2018-01-04T19:43:34.737Z,7.07
2018-01-04T19:45:37.396Z,8.30
2018-01-04T19:47:40.074Z,5.77
2018-01-04T19:49:42.740Z,7.93
2018-01-04T19:51:45.425Z,5.00
2018-01-04T19:53:48.070Z,6.17
2018-01-04T19:55:50.769Z,6.97
2018-01-04T19:57:53.424Z,7.20
2018-01-04T19:59:56.087Z,7.43
2018-01-04T20:01:59.560Z,10.03
2018-01-04T20:04:02.281Z,7.83
2018-01-04T20:06:04.932Z,7.90
2018-01-04T20:08:08.363Z,6.53
2018-01-04T20:10:10.995Z,5.67
2018-01-04T20:12:14.421Z,6.37
2018-01-04T20:14:17.112Z,6.43
2018-01-04T20:16:19.842Z,6.03
2018-01-04T20:18:23.279Z,4.67
2018-01-04T20:20:27.031Z,5.40
2018-01-04T20:22:29.757Z,5.60
2018-01-04T20:24:32.445Z,5.40
2018-01-04T20:26:35.105Z,5.50
2018-01-04T20:28:37.795Z,5.50
2018-01-04T20:30:40.445Z,5.70
2018-01-04T20:32:43.910Z,3.80
2018-01-04T20:34:47.645Z,3.80
2018-01-04T20:36:50.396Z,4.90
2018-01-04T20:38:53.820Z,4.13
2018-01-04T20:40:56.570Z,5.37
2018-01-04T20:42:59.513Z,4.77
2018-01-04T20:45:02.191Z,5.13
2018-01-04T20:47:05.645Z,4.90
2018-01-04T20:49:08.311Z,4.43
2018-01-04T20:51:12.016Z,4.30
2018-01-04T20:53:14.771Z,4.10
2018-01-04T20:55:18.236Z,4.80
2018-01-04T20:57:20.962Z,4.83
2018-01-04T20:59:26.783Z,4.40
2018-01-04T21:01:29.614Z,4.07
2018-01-04T21:03:32.592Z,3.57
2018-01-04T21:05:35.233Z,4.10
2018-01-04T21:07:38.649Z,3.20
2018-01-04T21:09:41.339Z,2.97
2018-01-04T21:11:45.000Z,2.30
2018-01-04T21:13:48.714Z,2.60
2018-01-04T21:15:53.108Z,2.93
2018-01-04T21:17:57.735Z,2.87
2018-01-04T21:20:00.414Z,2.70
2018-01-04T21:22:03.855Z,4.53
2018-01-04T21:24:06.488Z,2.30
2018-01-04T21:26:09.932Z,2.50
2018-01-04T21:28:12.568Z,3.90
2018-01-04T21:30:16.066Z,5.03
2018-01-04T21:32:19.491Z,3.37
2018-01-04T21:34:22.146Z,3.53
2018-01-04T21:36:24.816Z,6.37
2018-01-04T21:38:27.495Z,3.63
2018-01-04T21:40:30.155Z,5.00
2018-01-04T21:42:33.567Z,2.83
2018-01-04T21:44:36.270Z,2.87
2018-01-04T21:46:38.900Z,4.17
2018-01-04T21:48:42.332Z,3.70
2018-01-04T21:50:45.003Z,3.03
2018-01-04T21:52:47.663Z,3.50
2018-01-04T21:54:50.339Z,3.10
2018-01-04T21:56:53.032Z,4.00
2018-01-04T21:58:55.708Z,4.20
2018-01-04T22:00:58.362Z,3.13
2018-01-04T22:03:01.792Z,3.70
2018-01-04T22:05:04.448Z,3.43
2018-01-04T22:07:07.107Z,3.83
2018-01-04T22:09:10.541Z,3.80
2018-01-04T22:11:13.187Z,3.53
2018-01-04T22:13:15.865Z,3.40
2018-01-04T22:15:18.492Z,3.27
2018-01-04T22:17:21.141Z,2.80
2018-01-04T22:19:23.801Z,2.87
2018-01-04T22:21:26.564Z,3.23
2018-01-04T22:23:29.277Z,3.40
2018-01-04T22:25:31.945Z,3.20
2018-01-04T22:27:34.604Z,3.80
2018-01-04T22:29:37.265Z,3.40
2018-01-04T22:31:39.997Z,3.33
2018-01-04T22:33:42.653Z,3.50
2018-01-04T22:35:45.316Z,3.23
2018-01-04T22:37:48.019Z,3.23
2018-01-04T22:39:50.663Z,3.93
2018-01-04T22:41:53.410Z,3.43
2018-01-04T22:43:56.136Z,3.90
2018-01-04T22:45:58.801Z,4.00
2018-01-04T22:48:01.482Z,3.50
2018-01-04T22:50:04.205Z,3.10
2018-01-04T22:52:06.864Z,2.73
2018-01-04T22:54:09.685Z,4.17
2018-01-04T22:56:14.436Z,4.00
2018-01-04T22:58:17.111Z,3.10
2018-01-04T23:00:19.761Z,3.50
2018-01-04T23:02:22.443Z,3.20
2018-01-04T23:04:25.096Z,3.33
2018-01-04T23:06:28.525Z,3.50
2018-01-04T23:08:31.240Z,4.20
2018-01-04T23:10:33.872Z,3.23
2018-01-04T23:12:36.534Z,3.67
2018-01-04T23:14:40.012Z,4.00
2018-01-04T23:16:43.435Z,4.27
2018-01-04T23:18:46.087Z,4.87
2018-01-04T23:20:49.590Z,3.87
2018-01-04T23:22:52.992Z,3.13
2018-01-04T23:24:55.631Z,4.57
2018-01-04T23:26:58.345Z,2.77
2018-01-04T23:29:01.010Z,2.70
2018-01-04T23:31:04.430Z,2.10
2018-01-04T23:33:07.126Z,3.27
2018-01-04T23:35:09.788Z,3.43
2018-01-04T23:37:12.428Z,3.20
2018-01-04T23:39:15.864Z,2.50
2018-01-04T23:41:18.522Z,2.37
2018-01-04T23:43:21.161Z,2.70
2018-01-04T23:45:23.842Z,3.23
2018-01-04T23:47:26.499Z,3.10
2018-01-04T23:49:29.129Z,3.17
2018-01-04T23:51:31.827Z,2.57
2018-01-04T23:53:35.251Z,2.50
2018-01-04T23:55:37.908Z,2.80
2018-01-04T23:57:40.590Z,2.70
2018-01-04T23:59:43.234Z,3.10
